createdAt,value
2022-09-30T00:00:20.107Z,10.20
2022-09-30T00:01:52.406Z,8.77
2022-09-30T00:03:24.906Z,8.63
2022-09-30T00:04:57.075Z,8.85
2022-09-30T00:06:30.298Z,8.88
2022-09-30T00:08:02.354Z,8.55
2022-09-30T00:09:34.469Z,10.32
2022-09-30T00:11:07.694Z,9.25
2022-09-30T00:12:40.050Z,8.02
2022-09-30T00:14:16.529Z,7.80
2022-09-30T00:15:48.696Z,7.95
2022-09-30T00:17:21.364Z,7.55
2022-09-30T00:18:55.757Z,7.95
2022-09-30T00:20:27.789Z,10.93
2022-09-30T00:21:59.878Z,8.25
2022-09-30T00:25:10.820Z,9.27
2022-09-30T00:26:43.046Z,8.95
2022-09-30T00:28:16.261Z,9.63
2022-09-30T00:29:48.341Z,7.05
2022-09-30T00:31:21.248Z,7.93
2022-09-30T00:32:53.342Z,8.30
2022-09-30T00:34:25.464Z,8.30
2022-09-30T00:35:57.640Z,8.85
2022-09-30T00:37:29.669Z,8.38
2022-09-30T00:39:01.894Z,8.98
2022-09-30T00:40:34.032Z,8.13
2022-09-30T00:42:12.481Z,8.02
2022-09-30T00:43:53.875Z,9.45
2022-09-30T00:45:28.086Z,8.32
2022-09-30T00:47:00.301Z,10.80
2022-09-30T00:48:39.607Z,10.27
2022-09-30T00:50:35.667Z,8.75
2022-09-30T00:52:07.725Z,9.25
2022-09-30T00:53:47.589Z,9.07
2022-09-30T00:55:34.327Z,8.27
2022-09-30T00:57:08.567Z,8.27
2022-09-30T00:58:45.813Z,8.32
2022-09-30T01:00:17.837Z,8.65
2022-09-30T01:01:50.269Z,8.00
2022-09-30T01:03:23.094Z,10.93
2022-09-30T01:04:56.539Z,8.70
2022-09-30T01:06:29.053Z,8.90
2022-09-30T01:08:02.663Z,9.82
2022-09-30T01:09:36.487Z,11.18
2022-09-30T01:11:08.615Z,8.73
2022-09-30T01:12:40.890Z,7.22
2022-09-30T01:14:19.001Z,9.18
2022-09-30T01:16:18.478Z,9.13
2022-09-30T01:18:08.493Z,8.93
2022-09-30T01:19:40.594Z,8.25
2022-09-30T01:21:37.408Z,9.18
2022-09-30T01:23:41.527Z,8.48
2022-09-30T01:25:56.463Z,10.13
2022-09-30T01:29:42.870Z,8.18
2022-09-30T01:31:26.732Z,7.13
2022-09-30T01:33:01.550Z,7.60
2022-09-30T01:34:43.396Z,9.45
2022-09-30T01:36:35.027Z,8.38
2022-09-30T01:38:34.109Z,8.15
2022-09-30T01:40:14.735Z,7.88
2022-09-30T01:41:56.334Z,7.95
2022-09-30T01:43:38.822Z,8.70
2022-09-30T01:45:23.122Z,9.32
2022-09-30T01:47:22.457Z,9.45
2022-09-30T01:49:20.744Z,8.30
2022-09-30T01:50:55.664Z,7.18
2022-09-30T01:52:40.614Z,8.80
2022-09-30T01:54:19.307Z,8.07
2022-09-30T01:55:56.424Z,7.43
2022-09-30T01:57:35.601Z,8.63
2022-09-30T01:59:23.904Z,10.70
2022-09-30T02:00:59.936Z,9.13
2022-09-30T02:02:34.023Z,8.40
2022-09-30T02:04:17.314Z,8.02
2022-09-30T02:06:06.840Z,9.95
2022-09-30T02:07:45.837Z,7.43
2022-09-30T02:09:28.136Z,10.98
2022-09-30T02:11:08.541Z,9.07
2022-09-30T02:12:48.061Z,7.60
2022-09-30T02:14:26.525Z,10.30
2022-09-30T02:16:13.266Z,9.57
2022-09-30T02:17:53.867Z,8.15
2022-09-30T02:19:37.916Z,9.63
2022-09-30T02:21:11.215Z,9.45
2022-09-30T02:24:18.406Z,10.45
2022-09-30T02:25:56.588Z,9.02
2022-09-30T02:27:40.727Z,9.90
2022-09-30T02:29:19.304Z,9.55
2022-09-30T02:30:52.752Z,9.00
2022-09-30T02:32:33.962Z,7.47
2022-09-30T02:34:14.069Z,8.00
2022-09-30T02:35:50.292Z,9.27
2022-09-30T02:37:29.001Z,8.68
2022-09-30T02:39:07.348Z,7.60
2022-09-30T02:40:43.776Z,8.32
2022-09-30T02:43:58.667Z,8.45
2022-09-30T02:45:35.228Z,7.22
2022-09-30T02:47:16.983Z,9.75
2022-09-30T02:49:26.126Z,7.90
2022-09-30T02:51:02.454Z,9.98
2022-09-30T02:52:47.423Z,9.82
2022-09-30T02:54:39.156Z,9.02
2022-09-30T02:56:22.770Z,11.52
2022-09-30T02:58:17.894Z,8.85
2022-09-30T02:59:52.462Z,10.20
2022-09-30T03:01:25.391Z,8.55
2022-09-30T03:03:02.028Z,8.85
2022-09-30T03:04:35.428Z,10.70
2022-09-30T03:07:40.988Z,7.78
2022-09-30T03:09:13.123Z,9.57
2022-09-30T03:10:45.596Z,8.70
2022-09-30T03:12:41.726Z,8.63
2022-09-30T03:14:37.234Z,9.35
2022-09-30T03:16:17.862Z,11.15
2022-09-30T03:18:01.125Z,10.50
2022-09-30T03:20:07.062Z,10.32
2022-09-30T03:22:07.032Z,7.30
2022-09-30T03:24:12.967Z,9.73
2022-09-30T03:25:57.289Z,10.63
2022-09-30T03:28:00.840Z,8.73
2022-09-30T03:29:45.527Z,8.52
2022-09-30T03:31:40.687Z,7.68
2022-09-30T03:33:25.800Z,9.73
2022-09-30T03:35:14.951Z,8.18
2022-09-30T03:37:03.902Z,9.48
2022-09-30T03:39:05.729Z,8.27
2022-09-30T03:40:50.230Z,10.80
2022-09-30T03:42:39.002Z,8.50
2022-09-30T03:44:22.529Z,10.15
2022-09-30T03:46:10.237Z,10.50
2022-09-30T03:47:45.679Z,8.70
2022-09-30T03:49:22.767Z,10.90
2022-09-30T03:50:55.391Z,8.20
2022-09-30T03:52:28.305Z,9.77
2022-09-30T03:54:00.378Z,9.48
2022-09-30T03:55:33.780Z,8.93
2022-09-30T03:58:41.930Z,9.60
2022-09-30T04:00:14.236Z,11.63
2022-09-30T04:01:46.278Z,9.98
2022-09-30T04:03:19.934Z,9.23
2022-09-30T04:04:52.020Z,8.88
2022-09-30T04:06:25.992Z,8.38
2022-09-30T04:07:57.946Z,11.45
2022-09-30T04:09:29.971Z,12.15
2022-09-30T04:12:39.574Z,8.27
2022-09-30T04:14:11.576Z,8.90
2022-09-30T04:15:43.627Z,8.48
2022-09-30T04:17:15.649Z,11.95
2022-09-30T04:18:47.717Z,7.32
2022-09-30T04:20:20.108Z,11.48
2022-09-30T04:21:55.830Z,9.55
2022-09-30T04:23:27.862Z,8.45
2022-09-30T04:24:59.834Z,9.23
2022-09-30T04:26:31.843Z,7.90
2022-09-30T04:28:03.917Z,7.60
2022-09-30T04:29:36.196Z,8.75
2022-09-30T04:31:12.485Z,9.20
2022-09-30T04:32:45.775Z,8.38
2022-09-30T04:34:17.776Z,8.35
2022-09-30T04:35:54.208Z,10.25
2022-09-30T04:37:26.200Z,7.85
2022-09-30T04:38:58.348Z,9.55
2022-09-30T04:40:30.367Z,11.57
2022-09-30T04:42:02.381Z,10.23
2022-09-30T04:43:34.874Z,7.60
2022-09-30T04:45:07.594Z,8.30
2022-09-30T04:46:39.713Z,7.50
2022-09-30T04:48:15.487Z,10.27
2022-09-30T04:49:47.831Z,8.13
2022-09-30T04:51:21.769Z,8.38
2022-09-30T04:52:56.599Z,10.00
2022-09-30T04:54:28.756Z,8.60
2022-09-30T04:56:01.630Z,7.75
2022-09-30T04:57:33.670Z,7.47
2022-09-30T04:59:05.983Z,9.85
2022-09-30T05:00:38.788Z,7.40
2022-09-30T05:02:13.126Z,9.45
2022-09-30T05:03:45.822Z,11.65
2022-09-30T05:05:18.558Z,9.48
2022-09-30T05:06:50.665Z,9.07
2022-09-30T05:08:23.402Z,8.23
2022-09-30T05:16:44.585Z,8.27
2022-09-30T05:18:16.977Z,7.55
2022-09-30T05:19:49.103Z,9.73
2022-09-30T05:21:21.283Z,13.32
2022-09-30T05:22:56.865Z,7.97
2022-09-30T05:24:30.433Z,13.93
2022-09-30T05:26:05.031Z,7.72
2022-09-30T05:27:38.948Z,8.93
2022-09-30T05:29:11.436Z,7.95
2022-09-30T05:30:44.156Z,8.68
2022-09-30T05:32:16.433Z,11.95
2022-09-30T05:33:48.651Z,8.63
2022-09-30T05:35:20.756Z,8.70
2022-09-30T05:36:53.558Z,11.48
2022-09-30T05:38:25.694Z,9.60
2022-09-30T05:39:57.748Z,8.52
2022-09-30T05:41:30.930Z,10.00
2022-09-30T05:43:02.911Z,9.82
2022-09-30T05:44:35.027Z,11.25
2022-09-30T05:46:07.385Z,8.13
2022-09-30T05:47:39.892Z,11.68
2022-09-30T05:49:11.876Z,7.87
2022-09-30T05:52:15.685Z,10.52
2022-09-30T05:53:47.913Z,10.23
2022-09-30T05:55:22.524Z,10.77
2022-09-30T05:56:54.616Z,11.18
2022-09-30T05:58:27.739Z,8.93
2022-09-30T05:59:59.800Z,8.55
2022-09-30T06:01:32.099Z,9.05
2022-09-30T06:03:04.361Z,9.98
2022-09-30T06:04:37.241Z,8.50
2022-09-30T06:06:10.213Z,8.73
2022-09-30T06:07:42.638Z,8.23
2022-09-30T06:09:14.921Z,11.55
2022-09-30T06:10:47.227Z,10.82
2022-09-30T06:12:19.250Z,10.55
2022-09-30T06:13:52.128Z,9.60
2022-09-30T06:15:24.440Z,8.82
2022-09-30T06:16:56.471Z,8.02
2022-09-30T06:18:30.101Z,7.35
2022-09-30T06:20:05.276Z,9.00
2022-09-30T06:21:37.528Z,6.90
2022-09-30T06:23:09.814Z,8.63
2022-09-30T06:24:42.324Z,9.40
2022-09-30T06:26:15.112Z,10.85
2022-09-30T06:27:47.969Z,8.10
2022-09-30T06:29:20.119Z,8.07
2022-09-30T06:30:52.431Z,9.32
2022-09-30T06:32:26.649Z,9.82
2022-09-30T06:33:58.755Z,10.15
2022-09-30T06:35:31.083Z,7.25
2022-09-30T06:37:03.455Z,9.82
2022-09-30T06:38:37.540Z,7.25
2022-09-30T06:40:10.109Z,8.55
2022-09-30T06:41:44.663Z,7.07
2022-09-30T06:43:20.340Z,7.15
2022-09-30T06:44:53.580Z,7.43
2022-09-30T06:46:30.631Z,10.32
2022-09-30T06:48:05.974Z,10.20
2022-09-30T06:49:47.957Z,7.78
2022-09-30T06:51:21.794Z,8.77
2022-09-30T06:52:59.640Z,9.27
2022-09-30T06:54:31.943Z,7.32
2022-09-30T06:56:05.452Z,7.80
2022-09-30T06:57:37.617Z,9.05
2022-09-30T06:59:09.932Z,8.80
2022-09-30T07:00:42.267Z,8.30
2022-09-30T07:02:14.739Z,10.30
2022-09-30T07:03:52.645Z,8.65
2022-09-30T07:05:26.881Z,6.65
2022-09-30T07:06:59.181Z,7.17
2022-09-30T07:08:32.735Z,11.85
2022-09-30T07:10:05.437Z,10.07
2022-09-30T07:11:39.247Z,7.70
2022-09-30T07:13:11.415Z,9.88
2022-09-30T07:14:43.635Z,5.82
2022-09-30T07:16:17.958Z,7.20
2022-09-30T07:17:54.279Z,8.25
2022-09-30T07:19:26.681Z,5.70
2022-09-30T07:20:58.917Z,10.80
2022-09-30T07:22:32.529Z,8.38
2022-09-30T07:24:04.780Z,8.23
2022-09-30T07:25:37.105Z,7.35
2022-09-30T07:27:09.473Z,9.93
2022-09-30T07:28:41.783Z,8.63
2022-09-30T07:30:21.540Z,8.63
2022-09-30T07:31:57.424Z,6.50
2022-09-30T07:33:31.829Z,6.30
2022-09-30T07:35:04.469Z,7.13
2022-09-30T07:36:40.716Z,8.15
2022-09-30T07:38:13.034Z,6.82
2022-09-30T07:39:47.525Z,10.43
2022-09-30T07:41:24.939Z,5.93
2022-09-30T07:42:58.162Z,5.82
2022-09-30T07:46:11.667Z,5.63
2022-09-30T07:47:44.048Z,6.68
2022-09-30T07:49:25.222Z,4.90
2022-09-30T07:51:00.973Z,6.30
2022-09-30T07:52:33.167Z,4.93
2022-09-30T07:54:12.074Z,5.80
2022-09-30T07:55:44.458Z,6.32
2022-09-30T07:57:16.809Z,4.97
2022-09-30T07:58:49.956Z,5.33
2022-09-30T08:02:20.152Z,5.65
2022-09-30T08:03:57.579Z,6.50
2022-09-30T08:05:29.865Z,6.60
2022-09-30T08:07:02.731Z,6.60
2022-09-30T08:08:37.324Z,6.13
2022-09-30T08:10:10.260Z,5.10
2022-09-30T08:11:43.437Z,3.45
2022-09-30T08:14:49.889Z,3.85
2022-09-30T08:16:23.525Z,4.50
2022-09-30T08:17:56.017Z,4.13
2022-09-30T08:19:30.065Z,5.13
2022-09-30T08:21:06.803Z,3.25
2022-09-30T08:22:39.190Z,6.10
2022-09-30T08:25:44.741Z,4.70
2022-09-30T08:27:17.090Z,6.43
2022-09-30T08:28:49.509Z,6.00
2022-09-30T08:30:21.719Z,5.30
2022-09-30T08:31:54.274Z,5.70
2022-09-30T08:33:26.625Z,5.30
2022-09-30T08:34:58.997Z,3.67
2022-09-30T08:36:31.391Z,3.78
2022-09-30T08:38:04.269Z,3.97
2022-09-30T08:39:39.266Z,4.13
2022-09-30T08:41:27.132Z,7.10
2022-09-30T08:43:25.237Z,3.92
2022-09-30T08:45:17.498Z,4.63
2022-09-30T08:46:51.151Z,4.57
2022-09-30T08:48:25.990Z,3.63
2022-09-30T08:50:06.143Z,5.63
2022-09-30T08:51:42.376Z,4.72
2022-09-30T08:53:21.617Z,4.72
2022-09-30T08:54:55.644Z,4.75
2022-09-30T08:56:32.982Z,4.45
2022-09-30T08:58:05.818Z,4.07
2022-09-30T08:59:43.485Z,6.10
2022-09-30T09:01:15.953Z,3.95
2022-09-30T09:02:56.955Z,3.38
2022-09-30T09:04:29.152Z,7.78
2022-09-30T09:06:19.505Z,5.17
2022-09-30T09:08:03.865Z,5.05
2022-09-30T09:09:44.851Z,5.20
2022-09-30T09:11:42.803Z,5.57
2022-09-30T09:13:30.685Z,3.25
2022-09-30T09:15:37.995Z,5.40
2022-09-30T09:18:10.920Z,5.07
2022-09-30T09:19:57.614Z,4.40
2022-09-30T09:21:52.741Z,5.65
2022-09-30T09:23:26.536Z,5.57
2022-09-30T09:24:59.947Z,3.85
2022-09-30T09:26:37.472Z,6.95
2022-09-30T09:29:01.118Z,4.95
2022-09-30T09:30:37.131Z,3.90
2022-09-30T09:32:14.997Z,3.58
2022-09-30T09:33:47.719Z,6.03
2022-09-30T09:35:26.501Z,5.45
2022-09-30T09:37:17.568Z,4.57
2022-09-30T09:39:02.520Z,5.95
2022-09-30T09:41:10.372Z,3.58
2022-09-30T09:42:46.688Z,5.25
2022-09-30T09:44:28.051Z,4.57
2022-09-30T09:46:14.145Z,3.70
2022-09-30T09:47:51.984Z,4.72
2022-09-30T09:49:24.514Z,3.55
2022-09-30T09:50:59.984Z,3.95
2022-09-30T09:52:44.077Z,4.65
2022-09-30T09:54:21.466Z,3.95
2022-09-30T09:55:59.760Z,5.28
2022-09-30T09:57:32.854Z,3.28
2022-09-30T10:00:47.117Z,5.65
2022-09-30T10:02:38.981Z,4.93
2022-09-30T10:04:16.186Z,3.80
2022-09-30T10:06:07.753Z,3.72
2022-09-30T10:07:40.126Z,4.72
2022-09-30T10:09:33.253Z,3.30
2022-09-30T10:11:07.907Z,4.07
2022-09-30T10:12:42.227Z,3.90
2022-09-30T10:14:19.592Z,4.30
2022-09-30T10:15:54.961Z,3.90
2022-09-30T10:17:33.481Z,3.97
2022-09-30T10:19:23.842Z,4.22
2022-09-30T10:20:59.790Z,4.15
2022-09-30T10:24:29.329Z,4.35
2022-09-30T10:26:06.335Z,4.60
2022-09-30T10:27:40.769Z,5.40
2022-09-30T10:29:39.654Z,5.50
2022-09-30T10:31:18.812Z,3.90
2022-09-30T10:32:51.220Z,5.50
2022-09-30T10:34:40.897Z,6.55
2022-09-30T10:36:18.897Z,5.10
2022-09-30T10:37:55.459Z,5.55
2022-09-30T10:39:32.001Z,3.90
2022-09-30T10:41:06.425Z,2.63
2022-09-30T10:42:41.944Z,4.40
2022-09-30T10:44:22.953Z,5.90
2022-09-30T10:46:13.742Z,5.63
2022-09-30T10:47:51.687Z,3.70
2022-09-30T10:49:42.297Z,4.45
2022-09-30T10:51:34.539Z,4.93
2022-09-30T10:53:19.914Z,4.00
2022-09-30T10:55:00.984Z,5.50
2022-09-30T10:58:30.388Z,3.83
2022-09-30T11:00:08.679Z,4.97
2022-09-30T11:01:52.532Z,6.57
2022-09-30T11:03:43.689Z,5.55
2022-09-30T11:05:25.468Z,5.45
2022-09-30T11:07:27.663Z,4.80
2022-09-30T11:09:20.609Z,6.22
2022-09-30T11:11:10.652Z,6.07
2022-09-30T11:12:46.372Z,3.80
2022-09-30T11:14:30.898Z,3.30
2022-09-30T11:16:09.578Z,6.25
2022-09-30T11:17:55.161Z,3.30
2022-09-30T11:19:32.784Z,5.47
2022-09-30T11:21:13.687Z,7.53
2022-09-30T11:22:51.985Z,4.63
2022-09-30T11:24:33.629Z,4.53
2022-09-30T11:26:14.698Z,5.68
2022-09-30T11:28:17.316Z,4.63
2022-09-30T11:30:04.277Z,3.45
2022-09-30T11:32:10.548Z,3.63
2022-09-30T11:33:53.687Z,12.57
2022-09-30T11:35:51.599Z,3.40
2022-09-30T11:37:32.619Z,3.55
2022-09-30T11:39:29.125Z,6.10
2022-09-30T11:41:12.464Z,4.55
2022-09-30T11:43:08.935Z,3.22
2022-09-30T11:44:43.390Z,3.83
2022-09-30T11:46:18.578Z,4.72
2022-09-30T11:47:54.757Z,3.83
2022-09-30T11:49:42.365Z,5.63
2022-09-30T11:51:23.484Z,4.10
2022-09-30T11:53:04.768Z,4.45
2022-09-30T11:54:48.853Z,5.47
2022-09-30T11:56:25.315Z,5.10
2022-09-30T11:58:36.273Z,4.25
2022-09-30T12:00:02.493Z,4.55
2022-09-30T12:01:38.661Z,3.33
2022-09-30T12:03:25.516Z,4.20
2022-09-30T12:05:01.513Z,5.10
2022-09-30T12:07:00.313Z,2.85
2022-09-30T12:08:39.680Z,4.22
2022-09-30T12:10:21.982Z,5.05
2022-09-30T12:11:58.307Z,5.80
2022-09-30T12:13:36.966Z,7.07
2022-09-30T12:15:16.168Z,4.50
2022-09-30T12:16:49.239Z,4.78
2022-09-30T12:19:56.988Z,4.43
2022-09-30T12:21:42.859Z,4.60
2022-09-30T12:23:18.847Z,4.85
2022-09-30T12:24:51.276Z,3.97
2022-09-30T12:26:23.607Z,4.90
2022-09-30T12:28:30.048Z,4.53
2022-09-30T12:30:18.216Z,5.43
2022-09-30T12:32:12.483Z,5.38
2022-09-30T12:34:05.738Z,4.85
2022-09-30T12:36:04.213Z,4.93
2022-09-30T12:37:45.802Z,4.88
2022-09-30T12:39:26.970Z,3.25
2022-09-30T12:41:47.498Z,5.32
2022-09-30T12:43:30.781Z,5.47
2022-09-30T12:45:14.979Z,5.15
2022-09-30T12:47:38.206Z,7.43
2022-09-30T12:49:18.382Z,6.10
2022-09-30T12:50:54.707Z,5.95
2022-09-30T12:52:27.485Z,4.60
2022-09-30T12:54:13.527Z,5.15
2022-09-30T12:55:46.443Z,5.97
2022-09-30T12:57:24.881Z,5.10
2022-09-30T12:58:58.312Z,12.43
2022-09-30T13:00:34.997Z,11.30
2022-09-30T13:02:08.882Z,13.02
2022-09-30T13:03:53.260Z,25.00
2022-09-30T13:06:58.354Z,5.05
2022-09-30T13:08:48.295Z,7.53
2022-09-30T13:10:29.373Z,6.03
2022-09-30T13:12:01.834Z,5.18
2022-09-30T13:13:59.810Z,7.00
2022-09-30T13:15:32.189Z,8.77
2022-09-30T13:17:07.584Z,5.70
2022-09-30T13:18:41.471Z,5.43
2022-09-30T13:20:51.135Z,8.00
2022-09-30T13:22:32.042Z,6.05
2022-09-30T13:24:06.128Z,6.68
2022-09-30T13:25:54.861Z,5.63
2022-09-30T13:27:40.653Z,5.82
2022-09-30T13:29:18.469Z,4.72
2022-09-30T13:30:50.825Z,10.82
2022-09-30T13:32:34.947Z,7.70
2022-09-30T13:34:13.128Z,8.40
2022-09-30T13:35:48.980Z,20.67
2022-09-30T13:37:36.454Z,17.38
2022-09-30T13:39:25.067Z,11.10
2022-09-30T13:41:02.959Z,16.10
2022-09-30T13:42:42.630Z,6.80
2022-09-30T13:44:18.373Z,4.15
2022-09-30T13:45:53.532Z,6.22
2022-09-30T13:47:34.499Z,5.88
2022-09-30T13:49:25.252Z,8.02
2022-09-30T13:51:00.315Z,4.47
2022-09-30T13:52:34.854Z,5.75
2022-09-30T13:54:11.802Z,7.00
2022-09-30T13:55:45.763Z,5.78
2022-09-30T13:57:26.971Z,6.93
2022-09-30T13:59:22.901Z,6.20
2022-09-30T14:00:59.443Z,6.63
2022-09-30T14:02:45.721Z,5.60
2022-09-30T14:04:27.025Z,5.68
2022-09-30T14:06:23.526Z,8.77
2022-09-30T14:08:23.318Z,4.80
2022-09-30T14:09:55.626Z,5.05
2022-09-30T14:11:45.111Z,4.50
2022-09-30T14:13:42.061Z,7.70
2022-09-30T14:15:57.660Z,6.43
2022-09-30T14:17:41.900Z,8.07
2022-09-30T14:19:52.556Z,5.88
2022-09-30T14:21:43.778Z,5.95
2022-09-30T14:23:17.931Z,6.50
2022-09-30T14:24:50.939Z,6.30
2022-09-30T14:28:05.301Z,4.15
2022-09-30T14:29:37.475Z,4.93
2022-09-30T14:31:14.982Z,5.27
2022-09-30T14:32:53.325Z,7.72
2022-09-30T14:34:26.344Z,6.53
2022-09-30T14:38:09.888Z,10.75
2022-09-30T14:39:43.564Z,7.13
2022-09-30T14:41:25.178Z,5.70
2022-09-30T14:43:06.195Z,5.28
2022-09-30T14:44:39.361Z,4.63
2022-09-30T14:46:34.691Z,12.55
2022-09-30T14:48:19.754Z,15.60
2022-09-30T14:49:52.117Z,10.10
2022-09-30T14:51:24.436Z,7.07
2022-09-30T14:52:59.203Z,7.68
2022-09-30T14:54:32.788Z,13.55
2022-09-30T14:56:42.784Z,9.60
2022-09-30T14:58:44.032Z,8.57
2022-09-30T15:00:28.780Z,5.03
2022-09-30T15:02:03.532Z,4.95
2022-09-30T15:03:38.664Z,12.38
2022-09-30T15:05:14.248Z,5.88
2022-09-30T15:06:49.356Z,6.65
2022-09-30T15:08:22.822Z,5.93
2022-09-30T15:09:55.339Z,6.30
2022-09-30T15:11:27.679Z,6.35
2022-09-30T15:12:59.935Z,7.05
2022-09-30T15:14:33.475Z,6.93
2022-09-30T15:16:23.124Z,5.93
2022-09-30T15:17:58.197Z,9.20
2022-09-30T15:19:35.413Z,7.57
2022-09-30T15:21:15.866Z,5.63
2022-09-30T15:22:48.841Z,7.55
2022-09-30T15:24:23.919Z,7.78
2022-09-30T15:25:57.952Z,6.25
2022-09-30T15:27:31.572Z,8.15
2022-09-30T15:29:05.952Z,7.10
2022-09-30T15:30:38.656Z,5.63
2022-09-30T15:32:16.128Z,8.15
2022-09-30T15:33:48.434Z,8.00
2022-09-30T15:35:22.828Z,4.53
2022-09-30T15:37:08.357Z,8.57
2022-09-30T15:38:40.943Z,8.90
2022-09-30T15:40:34.043Z,10.43
2022-09-30T15:42:06.361Z,7.03
2022-09-30T15:43:43.934Z,6.75
2022-09-30T15:45:35.611Z,5.93
2022-09-30T15:47:09.842Z,6.25
2022-09-30T15:48:45.383Z,6.07
2022-09-30T15:50:44.102Z,5.53
2022-09-30T15:52:33.838Z,6.57
2022-09-30T15:54:15.555Z,7.43
2022-09-30T15:55:52.176Z,7.53
2022-09-30T15:57:48.657Z,5.55
2022-09-30T15:59:22.996Z,6.13
2022-09-30T16:01:23.742Z,9.13
2022-09-30T16:04:32.898Z,6.78
2022-09-30T16:06:07.607Z,6.75
2022-09-30T16:07:42.656Z,7.40
2022-09-30T16:09:21.176Z,7.75
2022-09-30T16:10:57.929Z,7.55
2022-09-30T16:12:34.429Z,5.32
2022-09-30T16:14:17.522Z,5.78
2022-09-30T16:15:51.483Z,6.05
2022-09-30T16:17:27.095Z,7.80
2022-09-30T16:19:01.681Z,6.80
2022-09-30T16:20:34.018Z,5.53
2022-09-30T16:22:06.633Z,10.63
2022-09-30T16:23:39.379Z,7.35
2022-09-30T16:25:17.459Z,10.60
2022-09-30T16:26:56.999Z,7.20
2022-09-30T16:28:29.393Z,8.68
2022-09-30T16:30:02.358Z,7.18
2022-09-30T16:31:34.940Z,6.45
2022-09-30T16:34:39.464Z,6.97
2022-09-30T16:36:12.628Z,7.95
2022-09-30T16:39:17.837Z,7.07
2022-09-30T16:40:50.614Z,7.47
2022-09-30T16:42:23.104Z,6.88
2022-09-30T16:43:55.535Z,9.80
2022-09-30T16:45:29.246Z,8.40
2022-09-30T16:47:04.984Z,8.15
2022-09-30T16:48:40.241Z,6.57
2022-09-30T16:50:20.319Z,6.85
2022-09-30T16:51:55.728Z,7.47
2022-09-30T16:53:28.097Z,8.10
2022-09-30T16:55:03.288Z,7.10
2022-09-30T16:56:35.793Z,7.63
2022-09-30T16:58:11.555Z,7.40
2022-09-30T16:59:44.763Z,7.68
2022-09-30T17:02:53.489Z,9.05
2022-09-30T17:04:27.334Z,7.70
2022-09-30T17:06:00.900Z,7.70
2022-09-30T17:07:33.139Z,9.32
2022-09-30T17:09:05.808Z,8.23
2022-09-30T17:10:38.083Z,8.13
2022-09-30T17:12:12.856Z,9.27
2022-09-30T17:13:45.474Z,11.75
2022-09-30T17:15:19.400Z,12.02
2022-09-30T17:16:52.607Z,6.65
2022-09-30T17:19:57.421Z,8.05
2022-09-30T17:21:29.865Z,9.52
2022-09-30T17:23:06.919Z,8.00
2022-09-30T17:24:39.706Z,7.60
2022-09-30T17:26:14.576Z,7.03
2022-09-30T17:27:52.692Z,7.82
2022-09-30T17:29:32.214Z,8.25
2022-09-30T17:31:05.463Z,7.95
2022-09-30T17:32:37.860Z,10.48
2022-09-30T17:34:10.400Z,8.40
2022-09-30T17:35:42.965Z,11.00
2022-09-30T17:37:17.558Z,8.15
2022-09-30T17:38:54.091Z,7.55
2022-09-30T17:40:45.093Z,7.85
2022-09-30T17:42:35.781Z,9.05
2022-09-30T17:44:08.176Z,9.02
2022-09-30T17:45:42.993Z,13.23
2022-09-30T17:47:15.332Z,9.57
2022-09-30T17:48:47.815Z,7.68
2022-09-30T17:50:22.518Z,6.60
2022-09-30T17:51:54.761Z,7.10
2022-09-30T17:53:29.705Z,8.13
2022-09-30T17:55:02.097Z,8.05
2022-09-30T17:56:34.760Z,6.73
2022-09-30T17:58:08.105Z,9.27
2022-09-30T18:01:18.181Z,7.32
2022-09-30T18:02:50.644Z,8.50
2022-09-30T18:04:25.175Z,7.70
2022-09-30T18:05:59.195Z,8.60
2022-09-30T18:07:31.771Z,8.40
2022-09-30T18:09:04.659Z,7.20
2022-09-30T18:10:38.465Z,9.32
2022-09-30T18:12:10.678Z,8.90
2022-09-30T18:13:43.143Z,10.05
2022-09-30T18:15:17.356Z,10.90
2022-09-30T18:16:49.870Z,8.27
2022-09-30T18:18:22.572Z,9.70
2022-09-30T18:19:54.906Z,9.65
2022-09-30T18:21:28.182Z,7.78
2022-09-30T18:24:50.770Z,7.18
2022-09-30T18:26:24.368Z,8.60
2022-09-30T18:28:00.652Z,9.55
2022-09-30T18:29:33.159Z,7.57
2022-09-30T18:31:06.978Z,10.60
2022-09-30T18:34:23.959Z,7.18
2022-09-30T18:35:58.360Z,11.63
2022-09-30T18:37:33.623Z,8.02
2022-09-30T18:39:05.939Z,7.85
2022-09-30T18:40:43.745Z,11.45
2022-09-30T18:42:17.857Z,8.07
2022-09-30T18:43:51.813Z,8.77
2022-09-30T18:45:25.327Z,11.07
2022-09-30T18:46:58.532Z,8.65
2022-09-30T18:48:32.373Z,7.78
2022-09-30T18:50:06.882Z,10.68
2022-09-30T18:51:39.215Z,11.90
2022-09-30T18:53:13.176Z,10.35
2022-09-30T18:54:45.527Z,9.27
2022-09-30T18:56:20.976Z,10.23
2022-09-30T18:57:56.574Z,8.00
2022-09-30T18:59:30.223Z,9.75
2022-09-30T19:01:06.385Z,8.25
2022-09-30T19:02:42.266Z,7.40
2022-09-30T19:04:14.697Z,10.70
2022-09-30T19:05:47.090Z,9.23
2022-09-30T19:07:20.697Z,9.20
2022-09-30T19:08:53.205Z,7.50
2022-09-30T19:10:26.665Z,10.65
2022-09-30T19:12:00.450Z,8.68
2022-09-30T19:13:32.786Z,9.70
2022-09-30T19:15:06.571Z,9.43
2022-09-30T19:16:39.931Z,8.13
2022-09-30T19:18:12.451Z,8.88
2022-09-30T19:19:46.407Z,9.13
2022-09-30T19:21:20.851Z,8.23
2022-09-30T19:22:53.169Z,9.07
2022-09-30T19:24:27.495Z,7.70
2022-09-30T19:26:01.629Z,8.43
2022-09-30T19:27:36.482Z,12.30
2022-09-30T19:29:10.868Z,8.98
2022-09-30T19:30:43.275Z,8.18
2022-09-30T19:32:15.773Z,7.33
2022-09-30T19:33:56.072Z,8.63
2022-09-30T19:35:37.819Z,7.72
2022-09-30T19:37:22.615Z,8.68
2022-09-30T19:39:10.363Z,8.35
2022-09-30T19:40:44.028Z,7.85
2022-09-30T19:42:18.549Z,10.45
2022-09-30T19:43:51.112Z,8.88
2022-09-30T19:45:26.123Z,8.15
2022-09-30T19:46:58.789Z,8.38
2022-09-30T19:48:32.185Z,9.13
2022-09-30T19:51:37.467Z,10.07
2022-09-30T19:53:10.433Z,10.43
2022-09-30T19:54:44.795Z,10.88
2022-09-30T19:56:20.576Z,10.85
2022-09-30T19:57:52.921Z,9.15
2022-09-30T19:59:25.204Z,9.10
2022-09-30T20:00:57.916Z,8.73
2022-09-30T20:02:30.189Z,9.32
2022-09-30T20:04:05.550Z,8.23
2022-09-30T20:07:10.036Z,9.95
2022-09-30T20:09:01.433Z,9.82
2022-09-30T20:10:34.011Z,10.05
2022-09-30T20:12:07.555Z,8.98
2022-09-30T20:13:40.069Z,10.25
2022-09-30T20:15:30.775Z,13.90
2022-09-30T20:17:03.086Z,11.25
2022-09-30T20:18:36.970Z,10.85
2022-09-30T20:20:28.362Z,12.32
2022-09-30T20:22:00.571Z,13.13
2022-09-30T20:23:39.571Z,10.10
2022-09-30T20:25:12.040Z,11.30
2022-09-30T20:26:45.080Z,9.43
2022-09-30T20:28:17.859Z,11.70
2022-09-30T20:29:50.477Z,12.02
2022-09-30T20:31:22.627Z,13.82
2022-09-30T20:32:55.169Z,10.07
2022-09-30T20:34:27.662Z,12.52
2022-09-30T20:36:05.827Z,12.83
2022-09-30T20:37:40.252Z,10.77
2022-09-30T20:39:13.160Z,10.95
2022-09-30T20:40:45.991Z,14.13
2022-09-30T20:42:18.494Z,12.20
2022-09-30T20:43:54.204Z,11.30
2022-09-30T20:45:28.433Z,13.80
2022-09-30T20:47:00.715Z,10.18
2022-09-30T20:48:35.169Z,11.82
2022-09-30T20:50:08.105Z,9.27
2022-09-30T20:51:40.453Z,10.60
2022-09-30T20:53:14.063Z,15.90
2022-09-30T20:54:46.139Z,9.77
2022-09-30T20:56:20.146Z,9.52
2022-09-30T20:57:54.173Z,15.52
2022-09-30T20:59:26.346Z,10.10
2022-09-30T21:01:03.982Z,9.73
2022-09-30T21:02:36.190Z,11.18
2022-09-30T21:04:08.299Z,8.90
2022-09-30T21:05:40.898Z,9.43
2022-09-30T21:07:12.965Z,12.43
2022-09-30T21:08:45.303Z,10.05
2022-09-30T21:10:20.926Z,10.93
2022-09-30T21:11:53.757Z,9.68
2022-09-30T21:13:26.430Z,10.40
2022-09-30T21:14:58.792Z,9.82
2022-09-30T21:16:31.584Z,9.75
2022-09-30T21:18:04.397Z,10.13
2022-09-30T21:19:36.709Z,10.48
2022-09-30T21:21:13.904Z,12.52
2022-09-30T21:22:46.659Z,12.48
2022-09-30T21:24:19.014Z,11.75
2022-09-30T21:26:04.336Z,11.80
2022-09-30T21:27:36.600Z,11.82
2022-09-30T21:29:08.706Z,11.13
2022-09-30T21:30:41.610Z,18.85
2022-09-30T21:32:14.151Z,15.40
2022-09-30T21:33:57.260Z,11.25
2022-09-30T21:35:29.615Z,9.18
2022-09-30T21:37:02.313Z,8.93
2022-09-30T21:38:34.748Z,9.98
2022-09-30T21:40:07.428Z,10.30
2022-09-30T21:41:40.980Z,8.38
2022-09-30T21:43:13.931Z,9.68
2022-09-30T21:44:46.230Z,10.52
2022-09-30T21:46:18.864Z,11.48
2022-09-30T21:47:50.905Z,10.43
2022-09-30T21:49:24.184Z,11.93
2022-09-30T21:50:56.696Z,10.85
2022-09-30T21:52:32.652Z,10.63
2022-09-30T21:54:05.043Z,8.63
2022-09-30T21:55:37.614Z,7.80
2022-09-30T21:57:09.767Z,9.60
2022-09-30T21:58:41.704Z,9.15
2022-09-30T22:00:13.897Z,11.82
2022-09-30T22:01:46.735Z,8.02
2022-09-30T22:03:18.968Z,8.38
2022-09-30T22:04:50.964Z,9.45
2022-09-30T22:06:23.213Z,9.15
2022-09-30T22:07:55.238Z,9.23
2022-09-30T22:09:27.307Z,8.85
2022-09-30T22:10:59.245Z,13.82
2022-09-30T22:12:33.430Z,9.27
2022-09-30T22:14:05.402Z,11.52
2022-09-30T22:15:37.460Z,7.90
2022-09-30T22:17:10.436Z,8.73
2022-09-30T22:18:43.275Z,12.65
2022-09-30T22:20:15.277Z,8.55
2022-09-30T22:21:47.400Z,10.38
2022-09-30T22:23:19.315Z,9.38
2022-09-30T22:24:51.340Z,10.60
2022-09-30T22:26:23.773Z,9.93
2022-09-30T22:27:55.800Z,10.10